sensor_id;sensor_type;location;lat;lon;timestamp;P1;durP1;ratioP1;P2;durP2;ratioP2
61460;SDS011;47325;50.506;4.472;2023-08-07T00:00:49;6.20;;;1.50;;
61460;SDS011;47325;50.506;4.472;2023-08-07T00:06:34;7.50;;;1.60;;
61460;SDS011;47325;50.506;4.472;2023-08-07T00:12:18;5.30;;;1.50;;
61460;SDS011;47325;50.506;4.472;2023-08-07T00:18:03;7.40;;;1.60;;
61460;SDS011;47325;50.506;4.472;2023-08-07T00:23:47;7.00;;;1.70;;
61460;SDS011;47325;50.506;4.472;2023-08-07T00:29:31;4.60;;;1.60;;
61460;SDS011;47325;50.506;4.472;2023-08-07T00:35:16;6.70;;;1.50;;
61460;SDS011;47325;50.506;4.472;2023-08-07T00:41:00;6.70;;;1.50;;
61460;SDS011;47325;50.506;4.472;2023-08-07T00:46:44;4.40;;;1.40;;
61460;SDS011;47325;50.506;4.472;2023-08-07T00:52:29;5.00;;;1.50;;
61460;SDS011;47325;50.506;4.472;2023-08-07T00:58:14;4.80;;;1.60;;
61460;SDS011;47325;50.506;4.472;2023-08-07T01:03:58;5.90;;;1.70;;
61460;SDS011;47325;50.506;4.472;2023-08-07T01:09:42;9.00;;;1.80;;
61460;SDS011;47325;50.506;4.472;2023-08-07T01:15:29;6.00;;;1.60;;
61460;SDS011;47325;50.506;4.472;2023-08-07T01:21:21;4.30;;;1.50;;
61460;SDS011;47325;50.506;4.472;2023-08-07T01:27:13;5.80;;;1.70;;
61460;SDS011;47325;50.506;4.472;2023-08-07T01:33:02;6.40;;;1.60;;
61460;SDS011;47325;50.506;4.472;2023-08-07T01:38:49;8.70;;;1.50;;
61460;SDS011;47325;50.506;4.472;2023-08-07T01:44:34;14.90;;;1.80;;
61460;SDS011;47325;50.506;4.472;2023-08-07T01:50:19;4.90;;;1.50;;
61460;SDS011;47325;50.506;4.472;2023-08-07T01:56:03;8.00;;;1.50;;
61460;SDS011;47325;50.506;4.472;2023-08-07T02:01:47;5.10;;;1.40;;
61460;SDS011;47325;50.506;4.472;2023-08-07T02:07:32;6.20;;;1.80;;
61460;SDS011;47325;50.506;4.472;2023-08-07T02:13:16;3.70;;;1.30;;
61460;SDS011;47325;50.506;4.472;2023-08-07T02:19:00;4.40;;;1.60;;
61460;SDS011;47325;50.506;4.472;2023-08-07T02:24:45;5.10;;;1.90;;
61460;SDS011;47325;50.506;4.472;2023-08-07T02:30:29;3.60;;;1.60;;
61460;SDS011;47325;50.506;4.472;2023-08-07T02:36:14;5.60;;;1.40;;
61460;SDS011;47325;50.506;4.472;2023-08-07T02:41:59;4.40;;;1.60;;
61460;SDS011;47325;50.506;4.472;2023-08-07T02:47:43;6.00;;;1.90;;
61460;SDS011;47325;50.506;4.472;2023-08-07T02:53:27;5.20;;;1.60;;
61460;SDS011;47325;50.506;4.472;2023-08-07T02:59:11;4.40;;;1.70;;
61460;SDS011;47325;50.506;4.472;2023-08-07T03:04:55;5.30;;;1.60;;
61460;SDS011;47325;50.506;4.472;2023-08-07T03:10:40;7.90;;;1.70;;
61460;SDS011;47325;50.506;4.472;2023-08-07T03:16:24;3.10;;;1.70;;
61460;SDS011;47325;50.506;4.472;2023-08-07T03:22:09;4.00;;;1.70;;
61460;SDS011;47325;50.506;4.472;2023-08-07T03:27:53;4.30;;;1.70;;
61460;SDS011;47325;50.506;4.472;2023-08-07T03:33:38;8.00;;;1.70;;
61460;SDS011;47325;50.506;4.472;2023-08-07T03:39:22;4.40;;;1.60;;
61460;SDS011;47325;50.506;4.472;2023-08-07T03:45:07;3.80;;;1.40;;
61460;SDS011;47325;50.506;4.472;2023-08-07T03:50:51;4.90;;;1.70;;
61460;SDS011;47325;50.506;4.472;2023-08-07T03:56:35;6.60;;;1.60;;
61460;SDS011;47325;50.506;4.472;2023-08-07T04:02:20;4.20;;;1.70;;
61460;SDS011;47325;50.506;4.472;2023-08-07T04:08:04;4.50;;;1.80;;
61460;SDS011;47325;50.506;4.472;2023-08-07T04:13:49;3.00;;;1.40;;
61460;SDS011;47325;50.506;4.472;2023-08-07T04:19:33;5.60;;;1.60;;
61460;SDS011;47325;50.506;4.472;2023-08-07T04:25:17;5.40;;;1.60;;
61460;SDS011;47325;50.506;4.472;2023-08-07T04:31:02;3.60;;;1.80;;
61460;SDS011;47325;50.506;4.472;2023-08-07T04:36:46;3.80;;;1.50;;
61460;SDS011;47325;50.506;4.472;2023-08-07T04:42:30;5.70;;;1.80;;
61460;SDS011;47325;50.506;4.472;2023-08-07T04:48:16;2.70;;;1.60;;
61460;SDS011;47325;50.506;4.472;2023-08-07T04:54:00;5.90;;;1.90;;
61460;SDS011;47325;50.506;4.472;2023-08-07T04:59:44;5.50;;;2.00;;
61460;SDS011;47325;50.506;4.472;2023-08-07T05:05:29;6.50;;;2.00;;
61460;SDS011;47325;50.506;4.472;2023-08-07T05:11:14;4.80;;;1.70;;
61460;SDS011;47325;50.506;4.472;2023-08-07T05:16:58;4.10;;;1.80;;
61460;SDS011;47325;50.506;4.472;2023-08-07T05:22:42;5.80;;;1.80;;
61460;SDS011;47325;50.506;4.472;2023-08-07T05:28:26;4.30;;;1.70;;
61460;SDS011;47325;50.506;4.472;2023-08-07T05:34:11;3.40;;;1.90;;
61460;SDS011;47325;50.506;4.472;2023-08-07T05:39:55;8.60;;;2.00;;
61460;SDS011;47325;50.506;4.472;2023-08-07T05:45:39;5.00;;;1.80;;
61460;SDS011;47325;50.506;4.472;2023-08-07T05:51:23;4.90;;;1.90;;
61460;SDS011;47325;50.506;4.472;2023-08-07T05:57:08;3.80;;;1.70;;
61460;SDS011;47325;50.506;4.472;2023-08-07T06:02:53;5.70;;;1.90;;
61460;SDS011;47325;50.506;4.472;2023-08-07T06:08:38;4.70;;;1.90;;
61460;SDS011;47325;50.506;4.472;2023-08-07T06:14:23;4.80;;;2.00;;
61460;SDS011;47325;50.506;4.472;2023-08-07T06:20:08;3.20;;;1.90;;
61460;SDS011;47325;50.506;4.472;2023-08-07T06:25:55;7.30;;;1.80;;
61460;SDS011;47325;50.506;4.472;2023-08-07T06:31:43;4.80;;;1.90;;
61460;SDS011;47325;50.506;4.472;2023-08-07T06:37:27;4.70;;;1.90;;
61460;SDS011;47325;50.506;4.472;2023-08-07T06:43:12;3.50;;;2.00;;
61460;SDS011;47325;50.506;4.472;2023-08-07T06:48:56;5.30;;;2.00;;
61460;SDS011;47325;50.506;4.472;2023-08-07T06:54:40;3.90;;;1.60;;
61460;SDS011;47325;50.506;4.472;2023-08-07T07:00:25;4.10;;;2.00;;
61460;SDS011;47325;50.506;4.472;2023-08-07T07:06:09;4.70;;;1.90;;
61460;SDS011;47325;50.506;4.472;2023-08-07T07:11:54;3.10;;;1.80;;
61460;SDS011;47325;50.506;4.472;2023-08-07T07:17:39;6.30;;;1.90;;
61460;SDS011;47325;50.506;4.472;2023-08-07T07:23:24;4.80;;;1.90;;
61460;SDS011;47325;50.506;4.472;2023-08-07T07:29:08;5.30;;;1.70;;
61460;SDS011;47325;50.506;4.472;2023-08-07T07:34:52;4.70;;;2.30;;
61460;SDS011;47325;50.506;4.472;2023-08-07T07:40:37;4.40;;;1.70;;
61460;SDS011;47325;50.506;4.472;2023-08-07T07:46:22;5.90;;;1.70;;
61460;SDS011;47325;50.506;4.472;2023-08-07T07:52:07;4.90;;;1.70;;
61460;SDS011;47325;50.506;4.472;2023-08-07T07:57:51;3.20;;;1.50;;
61460;SDS011;47325;50.506;4.472;2023-08-07T08:03:36;3.90;;;1.60;;
61460;SDS011;47325;50.506;4.472;2023-08-07T08:09:20;2.80;;;1.50;;
61460;SDS011;47325;50.506;4.472;2023-08-07T08:15:05;4.60;;;1.70;;
61460;SDS011;47325;50.506;4.472;2023-08-07T08:20:51;3.30;;;1.50;;
61460;SDS011;47325;50.506;4.472;2023-08-07T08:26:35;2.60;;;1.40;;
61460;SDS011;47325;50.506;4.472;2023-08-07T08:32:20;4.30;;;1.60;;
61460;SDS011;47325;50.506;4.472;2023-08-07T08:38:05;3.60;;;1.20;;
61460;SDS011;47325;50.506;4.472;2023-08-07T08:43:51;3.90;;;1.40;;
61460;SDS011;47325;50.506;4.472;2023-08-07T08:49:37;2.20;;;1.40;;
61460;SDS011;47325;50.506;4.472;2023-08-07T08:55:26;2.50;;;1.30;;
61460;SDS011;47325;50.506;4.472;2023-08-07T09:01:10;2.60;;;1.00;;
61460;SDS011;47325;50.506;4.472;2023-08-07T09:06:58;4.10;;;1.50;;
61460;SDS011;47325;50.506;4.472;2023-08-07T09:12:45;2.40;;;1.20;;
61460;SDS011;47325;50.506;4.472;2023-08-07T09:18:32;2.60;;;1.40;;
61460;SDS011;47325;50.506;4.472;2023-08-07T09:24:17;3.90;;;1.30;;
61460;SDS011;47325;50.506;4.472;2023-08-07T09:30:05;3.30;;;1.30;;
61460;SDS011;47325;50.506;4.472;2023-08-07T09:35:49;3.20;;;1.20;;
61460;SDS011;47325;50.506;4.472;2023-08-07T09:41:34;2.80;;;1.10;;
61460;SDS011;47325;50.506;4.472;2023-08-07T09:47:18;2.90;;;1.30;;
61460;SDS011;47325;50.506;4.472;2023-08-07T09:53:03;3.40;;;1.30;;
61460;SDS011;47325;50.506;4.472;2023-08-07T09:58:51;3.00;;;1.40;;
61460;SDS011;47325;50.506;4.472;2023-08-07T10:04:37;2.70;;;1.20;;
61460;SDS011;47325;50.506;4.472;2023-08-07T10:10:22;2.30;;;1.10;;
61460;SDS011;47325;50.506;4.472;2023-08-07T10:16:06;1.80;;;1.20;;
61460;SDS011;47325;50.506;4.472;2023-08-07T10:21:51;3.70;;;1.40;;
61460;SDS011;47325;50.506;4.472;2023-08-07T10:27:37;3.20;;;1.20;;
61460;SDS011;47325;50.506;4.472;2023-08-07T10:33:32;2.00;;;1.20;;
61460;SDS011;47325;50.506;4.472;2023-08-07T10:39:17;3.50;;;1.30;;
61460;SDS011;47325;50.506;4.472;2023-08-07T10:45:01;3.60;;;1.30;;
61460;SDS011;47325;50.506;4.472;2023-08-07T10:50:55;3.60;;;1.20;;
61460;SDS011;47325;50.506;4.472;2023-08-07T10:56:40;4.00;;;1.30;;
61460;SDS011;47325;50.506;4.472;2023-08-07T11:02:28;4.10;;;1.20;;
61460;SDS011;47325;50.506;4.472;2023-08-07T11:08:13;4.20;;;1.30;;
61460;SDS011;47325;50.506;4.472;2023-08-07T11:13:58;2.50;;;1.20;;
61460;SDS011;47325;50.506;4.472;2023-08-07T11:19:42;5.70;;;1.30;;
61460;SDS011;47325;50.506;4.472;2023-08-07T11:25:27;3.70;;;1.20;;
61460;SDS011;47325;50.506;4.472;2023-08-07T11:31:11;1.90;;;1.00;;
61460;SDS011;47325;50.506;4.472;2023-08-07T11:36:55;2.00;;;1.10;;
61460;SDS011;47325;50.506;4.472;2023-08-07T11:42:43;3.70;;;1.30;;
61460;SDS011;47325;50.506;4.472;2023-08-07T11:48:28;2.10;;;1.20;;
61460;SDS011;47325;50.506;4.472;2023-08-07T11:54:14;2.10;;;1.20;;
61460;SDS011;47325;50.506;4.472;2023-08-07T11:59:59;2.40;;;1.00;;
61460;SDS011;47325;50.506;4.472;2023-08-07T12:05:43;2.60;;;1.20;;
61460;SDS011;47325;50.506;4.472;2023-08-07T12:11:28;2.10;;;1.30;;
61460;SDS011;47325;50.506;4.472;2023-08-07T12:17:13;3.10;;;1.00;;
61460;SDS011;47325;50.506;4.472;2023-08-07T12:23:00;1.80;;;1.10;;
61460;SDS011;47325;50.506;4.472;2023-08-07T12:28:45;2.30;;;1.10;;
61460;SDS011;47325;50.506;4.472;2023-08-07T12:34:30;3.90;;;1.10;;
61460;SDS011;47325;50.506;4.472;2023-08-07T12:40:30;12.70;;;1.50;;
61460;SDS011;47325;50.506;4.472;2023-08-07T12:46:20;11.80;;;4.70;;
61460;SDS011;47325;50.506;4.472;2023-08-07T12:52:16;6.20;;;2.80;;
61460;SDS011;47325;50.506;4.472;2023-08-07T12:58:00;6.30;;;2.40;;
61460;SDS011;47325;50.506;4.472;2023-08-07T13:03:44;5.80;;;1.90;;
61460;SDS011;47325;50.506;4.472;2023-08-07T13:09:29;7.30;;;3.80;;
61460;SDS011;47325;50.506;4.472;2023-08-07T13:15:14;8.20;;;3.60;;
61460;SDS011;47325;50.506;4.472;2023-08-07T13:20:59;6.50;;;3.90;;
61460;SDS011;47325;50.506;4.472;2023-08-07T13:26:43;5.90;;;3.70;;
61460;SDS011;47325;50.506;4.472;2023-08-07T13:32:28;10.70;;;3.70;;
61460;SDS011;47325;50.506;4.472;2023-08-07T13:38:14;8.60;;;3.50;;
61460;SDS011;47325;50.506;4.472;2023-08-07T13:44:00;6.10;;;3.20;;
61460;SDS011;47325;50.506;4.472;2023-08-07T13:49:44;4.30;;;2.40;;
61460;SDS011;47325;50.506;4.472;2023-08-07T13:55:29;5.30;;;2.70;;
61460;SDS011;47325;50.506;4.472;2023-08-07T14:01:13;4.20;;;2.50;;
61460;SDS011;47325;50.506;4.472;2023-08-07T14:06:58;5.00;;;2.60;;
61460;SDS011;47325;50.506;4.472;2023-08-07T14:12:43;3.10;;;2.00;;
61460;SDS011;47325;50.506;4.472;2023-08-07T14:18:28;3.00;;;1.90;;
61460;SDS011;47325;50.506;4.472;2023-08-07T14:24:14;4.50;;;2.20;;
61460;SDS011;47325;50.506;4.472;2023-08-07T14:30:00;3.60;;;2.00;;
61460;SDS011;47325;50.506;4.472;2023-08-07T14:35:44;3.10;;;1.80;;
61460;SDS011;47325;50.506;4.472;2023-08-07T14:41:28;3.50;;;1.80;;
61460;SDS011;47325;50.506;4.472;2023-08-07T14:47:13;2.90;;;1.60;;
61460;SDS011;47325;50.506;4.472;2023-08-07T14:52:57;3.10;;;1.60;;
61460;SDS011;47325;50.506;4.472;2023-08-07T14:58:42;1.90;;;1.30;;
61460;SDS011;47325;50.506;4.472;2023-08-07T15:04:26;2.10;;;1.40;;
61460;SDS011;47325;50.506;4.472;2023-08-07T15:10:11;2.20;;;1.40;;
61460;SDS011;47325;50.506;4.472;2023-08-07T15:15:55;2.20;;;1.20;;
61460;SDS011;47325;50.506;4.472;2023-08-07T15:21:40;1.60;;;1.10;;
61460;SDS011;47325;50.506;4.472;2023-08-07T15:27:24;2.10;;;1.10;;
61460;SDS011;47325;50.506;4.472;2023-08-07T15:33:08;1.40;;;1.10;;
61460;SDS011;47325;50.506;4.472;2023-08-07T15:38:53;1.80;;;1.10;;
61460;SDS011;47325;50.506;4.472;2023-08-07T15:44:37;2.50;;;1.20;;
61460;SDS011;47325;50.506;4.472;2023-08-07T15:50:22;2.80;;;1.20;;
61460;SDS011;47325;50.506;4.472;2023-08-07T15:56:06;2.40;;;1.00;;
61460;SDS011;47325;50.506;4.472;2023-08-07T16:01:51;2.10;;;0.90;;
61460;SDS011;47325;50.506;4.472;2023-08-07T16:07:35;1.40;;;0.80;;
61460;SDS011;47325;50.506;4.472;2023-08-07T16:13:19;1.70;;;1.00;;
61460;SDS011;47325;50.506;4.472;2023-08-07T16:19:04;2.10;;;0.90;;
61460;SDS011;47325;50.506;4.472;2023-08-07T16:24:48;2.70;;;1.00;;
61460;SDS011;47325;50.506;4.472;2023-08-07T16:30:33;1.90;;;0.90;;
61460;SDS011;47325;50.506;4.472;2023-08-07T16:36:17;4.20;;;1.00;;
61460;SDS011;47325;50.506;4.472;2023-08-07T16:42:02;3.70;;;1.00;;
61460;SDS011;47325;50.506;4.472;2023-08-07T16:47:46;1.70;;;0.90;;
61460;SDS011;47325;50.506;4.472;2023-08-07T16:53:31;2.50;;;0.80;;
61460;SDS011;47325;50.506;4.472;2023-08-07T16:59:15;1.60;;;0.80;;
61460;SDS011;47325;50.506;4.472;2023-08-07T17:05:00;8.80;;;1.20;;
61460;SDS011;47325;50.506;4.472;2023-08-07T17:10:44;2.60;;;0.80;;
61460;SDS011;47325;50.506;4.472;2023-08-07T17:16:29;2.00;;;0.80;;
61460;SDS011;47325;50.506;4.472;2023-08-07T17:22:13;1.60;;;1.10;;
61460;SDS011;47325;50.506;4.472;2023-08-07T17:27:57;5.20;;;1.00;;
61460;SDS011;47325;50.506;4.472;2023-08-07T17:33:42;2.40;;;1.00;;
61460;SDS011;47325;50.506;4.472;2023-08-07T17:39:26;1.80;;;0.90;;
61460;SDS011;47325;50.506;4.472;2023-08-07T17:45:11;2.10;;;0.90;;
61460;SDS011;47325;50.506;4.472;2023-08-07T17:50:58;4.20;;;1.00;;
61460;SDS011;47325;50.506;4.472;2023-08-07T17:56:42;3.60;;;1.20;;
61460;SDS011;47325;50.506;4.472;2023-08-07T18:02:27;2.90;;;1.20;;
61460;SDS011;47325;50.506;4.472;2023-08-07T18:08:11;3.60;;;1.40;;
61460;SDS011;47325;50.506;4.472;2023-08-07T18:13:56;7.20;;;2.10;;
61460;SDS011;47325;50.506;4.472;2023-08-07T18:19:40;5.20;;;1.60;;
61460;SDS011;47325;50.506;4.472;2023-08-07T18:25:24;7.60;;;1.80;;
61460;SDS011;47325;50.506;4.472;2023-08-07T18:31:09;4.70;;;1.50;;
61460;SDS011;47325;50.506;4.472;2023-08-07T18:36:53;3.80;;;1.40;;
61460;SDS011;47325;50.506;4.472;2023-08-07T18:42:39;3.90;;;1.40;;
61460;SDS011;47325;50.506;4.472;2023-08-07T18:48:23;5.40;;;1.70;;
61460;SDS011;47325;50.506;4.472;2023-08-07T18:54:07;3.60;;;1.40;;
61460;SDS011;47325;50.506;4.472;2023-08-07T18:59:54;4.70;;;1.50;;
61460;SDS011;47325;50.506;4.472;2023-08-07T19:05:41;5.30;;;1.90;;
61460;SDS011;47325;50.506;4.472;2023-08-07T19:11:26;2.60;;;1.60;;
61460;SDS011;47325;50.506;4.472;2023-08-07T19:17:14;7.30;;;1.60;;
61460;SDS011;47325;50.506;4.472;2023-08-07T19:22:59;6.00;;;1.80;;
61460;SDS011;47325;50.506;4.472;2023-08-07T19:28:43;4.10;;;1.60;;
61460;SDS011;47325;50.506;4.472;2023-08-07T19:34:27;3.40;;;1.50;;
61460;SDS011;47325;50.506;4.472;2023-08-07T19:40:12;5.20;;;1.70;;
61460;SDS011;47325;50.506;4.472;2023-08-07T19:45:56;4.00;;;1.40;;
61460;SDS011;47325;50.506;4.472;2023-08-07T19:51:41;7.50;;;1.90;;
61460;SDS011;47325;50.506;4.472;2023-08-07T19:57:26;5.00;;;1.60;;
61460;SDS011;47325;50.506;4.472;2023-08-07T20:03:10;3.60;;;1.50;;
61460;SDS011;47325;50.506;4.472;2023-08-07T20:08:54;2.70;;;1.40;;
61460;SDS011;47325;50.506;4.472;2023-08-07T20:14:38;3.00;;;1.40;;
61460;SDS011;47325;50.506;4.472;2023-08-07T20:20:23;2.20;;;1.30;;
61460;SDS011;47325;50.506;4.472;2023-08-07T20:26:08;2.50;;;1.30;;
61460;SDS011;47325;50.506;4.472;2023-08-07T20:31:56;2.70;;;1.60;;
61460;SDS011;47325;50.506;4.472;2023-08-07T20:37:41;3.70;;;1.40;;
61460;SDS011;47325;50.506;4.472;2023-08-07T20:43:26;3.50;;;1.40;;
61460;SDS011;47325;50.506;4.472;2023-08-07T20:49:10;4.70;;;1.50;;
61460;SDS011;47325;50.506;4.472;2023-08-07T20:54:54;2.20;;;1.30;;
61460;SDS011;47325;50.506;4.472;2023-08-07T21:00:38;3.10;;;1.40;;
61460;SDS011;47325;50.506;4.472;2023-08-07T21:06:23;3.30;;;1.30;;
61460;SDS011;47325;50.506;4.472;2023-08-07T21:12:08;3.30;;;1.30;;
61460;SDS011;47325;50.506;4.472;2023-08-07T21:17:52;4.20;;;1.50;;
61460;SDS011;47325;50.506;4.472;2023-08-07T21:23:37;4.10;;;1.30;;
61460;SDS011;47325;50.506;4.472;2023-08-07T21:29:21;3.80;;;1.40;;
61460;SDS011;47325;50.506;4.472;2023-08-07T21:35:06;3.20;;;1.50;;
61460;SDS011;47325;50.506;4.472;2023-08-07T21:40:50;2.40;;;1.30;;
61460;SDS011;47325;50.506;4.472;2023-08-07T21:46:34;2.80;;;1.40;;
61460;SDS011;47325;50.506;4.472;2023-08-07T21:52:19;3.10;;;1.50;;
61460;SDS011;47325;50.506;4.472;2023-08-07T21:58:03;3.10;;;1.30;;
61460;SDS011;47325;50.506;4.472;2023-08-07T22:03:48;3.00;;;1.40;;
61460;SDS011;47325;50.506;4.472;2023-08-07T22:09:33;3.70;;;1.60;;
61460;SDS011;47325;50.506;4.472;2023-08-07T22:15:17;3.70;;;1.30;;
61460;SDS011;47325;50.506;4.472;2023-08-07T22:21:01;2.60;;;1.40;;
61460;SDS011;47325;50.506;4.472;2023-08-07T22:26:46;3.60;;;1.60;;
61460;SDS011;47325;50.506;4.472;2023-08-07T22:32:30;3.80;;;1.30;;
61460;SDS011;47325;50.506;4.472;2023-08-07T22:38:15;4.00;;;1.30;;
61460;SDS011;47325;50.506;4.472;2023-08-07T22:44:00;3.00;;;1.50;;
61460;SDS011;47325;50.506;4.472;2023-08-07T22:49:45;2.10;;;1.10;;
61460;SDS011;47325;50.506;4.472;2023-08-07T22:55:29;4.10;;;1.50;;
61460;SDS011;47325;50.506;4.472;2023-08-07T23:01:13;3.10;;;1.30;;
61460;SDS011;47325;50.506;4.472;2023-08-07T23:06:58;3.10;;;1.40;;
61460;SDS011;47325;50.506;4.472;2023-08-07T23:12:42;2.90;;;1.40;;
61460;SDS011;47325;50.506;4.472;2023-08-07T23:18:26;3.70;;;1.40;;
61460;SDS011;47325;50.506;4.472;2023-08-07T23:24:11;4.00;;;1.20;;
61460;SDS011;47325;50.506;4.472;2023-08-07T23:29:55;3.80;;;1.30;;
61460;SDS011;47325;50.506;4.472;2023-08-07T23:35:39;2.50;;;1.30;;
61460;SDS011;47325;50.506;4.472;2023-08-07T23:41:24;2.20;;;1.30;;
61460;SDS011;47325;50.506;4.472;2023-08-07T23:47:08;4.50;;;1.40;;
61460;SDS011;47325;50.506;4.472;2023-08-07T23:52:53;1.80;;;1.30;;
61460;SDS011;47325;50.506;4.472;2023-08-07T23:58:37;2.90;;;1.50;;
